Time;durP1;ratioP1;P1;durP2;ratioP2;P2;SDS_P1;SDS_P2;PMS_P1;PMS_P2;Temp;Humidity;BMP_temperature;BMP_pressure;BME280_temperature;BME280_humidity;BME280_pressure;Samples;Min_cycle;Max_cycle;Signal;HPM_P1;HPM_P2
2024/02/18 00:02:15;;;;;;;35.57;23.33;;;9.30;99.90;;;;;;4994661;28;20620;-58
2024/02/18 00:04:42;;;;;;;34.80;23.13;;;9.20;99.90;;;;;;4984931;28;20205;-58
2024/02/18 00:07:09;;;;;;;34.60;23.30;;;9.50;99.90;;;;;;4989721;28;20205;-58
2024/02/18 00:09:36;;;;;;;34.50;24.20;;;9.20;99.90;;;;;;4994549;28;20230;-58
2024/02/18 00:12:04;;;;;;;39.67;26.00;;;9.20;99.90;;;;;;4994667;28;20230;-57
2024/02/18 00:14:32;;;;;;;49.60;28.83;;;9.20;99.90;;;;;;4991780;28;20203;-58
2024/02/18 00:16:59;;;;;;;45.53;29.60;;;9.10;99.90;;;;;;4994643;28;20216;-58
2024/02/18 00:19:26;;;;;;;38.27;24.50;;;9.10;99.90;;;;;;4991631;28;20209;-58
2024/02/18 00:21:53;;;;;;;36.20;24.40;;;9.10;99.90;;;;;;4994247;28;20760;-58
2024/02/18 00:24:21;;;;;;;35.90;23.57;;;9.20;99.90;;;;;;4993648;28;20734;-58
2024/02/18 00:26:51;;;;;;;33.83;22.93;;;9.20;99.90;;;;;;4994569;28;20680;-58
2024/02/18 00:29:18;;;;;;;35.27;23.27;;;9.20;99.90;;;;;;4994312;28;20708;-58
2024/02/18 00:31:47;;;;;;;30.30;21.83;;;9.20;99.90;;;;;;4994115;28;20230;-58
2024/02/18 00:34:19;;;;;;;33.77;23.40;;;9.20;99.90;;;;;;4981360;28;20201;-58
2024/02/18 00:36:47;;;;;;;36.17;25.17;;;9.30;99.90;;;;;;4994351;28;20265;-57
2024/02/18 00:39:14;;;;;;;33.80;24.70;;;9.30;99.90;;;;;;4994166;28;20206;-58
2024/02/18 00:41:41;;;;;;;35.33;26.67;;;9.20;99.90;;;;;;4994525;28;20230;-57
2024/02/18 00:44:09;;;;;;;30.60;22.70;;;9.20;99.90;;;;;;4993591;28;20214;-57
2024/02/18 00:46:36;;;;;;;34.17;22.90;;;9.20;99.90;;;;;;4999515;28;20225;-57
2024/02/18 00:49:04;;;;;;;30.53;22.50;;;9.10;99.90;;;;;;5013780;28;20225;-57
2024/02/18 00:51:31;;;;;;;36.70;24.63;;;9.10;99.90;;;;;;5014100;28;20249;-58
2024/02/18 00:53:58;;;;;;;35.37;24.00;;;9.00;99.90;;;;;;5014672;28;20213;-58
2024/02/18 00:56:26;;;;;;;33.60;25.10;;;9.10;99.90;;;;;;5013366;28;20213;-58
2024/02/18 00:58:53;;;;;;;32.10;23.80;;;9.00;99.90;;;;;;5013593;28;20267;-57
2024/02/18 01:01:20;;;;;;;28.80;21.70;;;9.00;99.90;;;;;;5012094;28;20238;-58
2024/02/18 01:03:48;;;;;;;34.13;24.47;;;9.00;99.90;;;;;;5012449;28;20209;-58
2024/02/18 01:06:16;;;;;;;33.47;23.03;;;9.00;99.90;;;;;;5013474;28;20208;-58
2024/02/18 01:08:44;;;;;;;33.93;23.63;;;9.00;99.90;;;;;;5013201;28;20229;-58
2024/02/18 01:11:12;;;;;;;37.43;24.30;;;9.10;99.90;;;;;;5013132;28;20228;-58
2024/02/18 01:13:39;;;;;;;36.63;25.33;;;9.10;99.90;;;;;;5012301;28;20272;-58
2024/02/18 01:16:06;;;;;;;32.87;22.97;;;9.10;99.90;;;;;;5010821;28;20197;-58
2024/02/18 01:18:40;;;;;;;29.60;20.73;;;9.00;99.90;;;;;;4993441;28;20204;-58
2024/02/18 01:21:07;;;;;;;33.37;21.77;;;9.00;99.90;;;;;;4993256;28;20231;-58
2024/02/18 01:23:36;;;;;;;30.90;21.27;;;8.90;99.90;;;;;;4992487;28;20207;-58
2024/02/18 01:26:03;;;;;;;31.93;20.60;;;8.90;99.90;;;;;;4993386;28;20208;-58
2024/02/18 01:28:30;;;;;;;29.40;21.17;;;9.00;99.90;;;;;;4994739;28;20749;-58
2024/02/18 01:30:58;;;;;;;28.67;20.27;;;9.00;99.90;;;;;;5012001;28;20221;-58
2024/02/18 01:33:25;;;;;;;27.60;19.93;;;9.00;99.90;;;;;;5011888;28;20212;-58
2024/02/18 01:35:52;;;;;;;32.03;22.00;;;9.00;99.90;;;;;;5012675;28;20208;-58
2024/02/18 01:38:19;;;;;;;31.23;22.13;;;9.00;99.90;;;;;;5012612;28;20217;-57
2024/02/18 01:40:47;;;;;;;28.33;21.87;;;8.90;99.90;;;;;;5012506;28;20208;-57
2024/02/18 01:43:17;;;;;;;31.03;21.97;;;8.90;99.90;;;;;;5010652;28;20198;-58
2024/02/18 01:45:45;;;;;;;31.80;23.10;;;9.00;99.90;;;;;;5013047;28;20626;-58
2024/02/18 01:48:14;;;;;;;33.33;23.43;;;9.00;99.90;;;;;;5012617;28;20211;-58
2024/02/18 01:50:41;;;;;;;32.77;22.73;;;9.00;99.90;;;;;;5012449;28;20612;-57
2024/02/18 01:53:09;;;;;;;33.10;24.40;;;8.90;99.90;;;;;;5011582;28;20209;-58
2024/02/18 01:55:36;;;;;;;31.90;23.57;;;9.00;99.90;;;;;;5012334;28;20210;-58
2024/02/18 01:58:05;;;;;;;33.30;23.90;;;9.00;99.90;;;;;;4998208;28;20257;-57
2024/02/18 02:00:33;;;;;;;37.90;25.20;;;8.90;99.90;;;;;;4992594;28;20202;-58
2024/02/18 02:03:00;;;;;;;33.13;24.13;;;;;;;;;;4992435;28;20235;-58
2024/02/18 02:05:28;;;;;;;39.93;24.57;;;;;;;;;;4991828;28;20284;-58
2024/02/18 02:07:56;;;;;;;37.33;26.53;;;;;;;;;;4982863;28;20204;-58
2024/02/18 02:10:23;;;;;;;36.60;26.17;;;;;;;;;;4973087;28;20228;-58
2024/02/18 02:12:50;;;;;;;34.67;24.57;;;;;;;;;;4973151;28;20670;-58
2024/02/18 02:15:19;;;;;;;40.57;28.17;;;;;;;;;;4972352;28;20210;-58
2024/02/18 02:17:46;;;;;;;38.30;27.33;;;;;;;;;;4989306;28;20203;-58
2024/02/18 02:20:14;;;;;;;41.83;30.27;;;;;;;;;;5011991;28;20205;-58
2024/02/18 02:22:41;;;;;;;37.20;28.13;;;;;;;;;;5009979;28;20232;-59
2024/02/18 02:25:10;;;;;;;40.00;27.63;;;;;;;;;;5010856;28;20205;-58
2024/02/18 02:27:39;;;;;;;36.37;25.23;;;;;;;;;;5010918;28;20249;-58
2024/02/18 02:30:08;;;;;;;38.87;27.83;;;;;;;;;;5011803;28;20709;-58
2024/02/18 02:32:36;;;;;;;39.37;27.53;;;;;;;;;;5011854;28;20227;-58
2024/02/18 02:35:03;;;;;;;36.03;25.40;;;8.80;99.90;;;;;;5011006;28;20677;-58
2024/02/18 02:37:32;;;;;;;39.77;27.53;;;8.80;99.90;;;;;;4977270;28;20255;-58
2024/02/18 02:39:59;;;;;;;38.03;27.13;;;8.70;99.90;;;;;;4972788;28;20703;-58
2024/02/18 02:42:26;;;;;;;38.23;27.07;;;8.70;99.90;;;;;;4976263;28;20222;-58
2024/02/18 02:44:53;;;;;;;44.27;28.93;;;8.70;99.90;;;;;;4975900;28;20265;-58
2024/02/18 02:47:21;;;;;;;41.17;29.80;;;8.70;99.90;;;;;;5008395;28;20201;-58
2024/02/18 02:49:48;;;;;;;38.90;26.73;;;;;;;;;;5003570;28;20218;-58
2024/02/18 02:52:15;;;;;;;40.70;25.23;;;8.70;99.90;;;;;;4996272;28;20226;-58
2024/02/18 02:54:42;;;;;;;38.67;27.83;;;;;;;;;;4995998;28;20276;-58
2024/02/18 02:57:10;;;;;;;36.97;27.27;;;;;;;;;;5010134;28;20201;-58
2024/02/18 02:59:37;;;;;;;34.17;25.03;;;8.70;99.90;;;;;;5015896;28;20204;-58
2024/02/18 03:02:04;;;;;;;36.43;25.20;;;;;;;;;;5015882;28;20294;-57
2024/02/18 03:04:32;;;;;;;39.37;27.40;;;;;;;;;;5015091;28;20743;-58
2024/02/18 03:06:59;;;;;;;38.80;25.60;;;8.70;99.90;;;;;;5014570;28;20749;-58
2024/02/18 03:09:27;;;;;;;36.43;26.93;;;;;;;;;;5015426;28;20634;-58
2024/02/18 03:11:54;;;;;;;39.80;27.60;;;8.90;99.90;;;;;;5015780;28;20225;-58
2024/02/18 03:14:21;;;;;;;44.30;28.63;;;;;;;;;;5015127;28;20264;-58
2024/02/18 03:16:48;;;;;;;36.77;25.37;;;;;;;;;;5014191;28;20200;-58
2024/02/18 03:19:15;;;;;;;42.63;27.97;;;8.70;99.90;;;;;;5015237;28;20205;-58
2024/02/18 03:21:44;;;;;;;36.90;26.97;;;;;;;;;;5014970;28;20640;-58
2024/02/18 03:24:10;;;;;;;42.37;26.90;;;8.60;99.90;;;;;;5014502;28;20221;-58
2024/02/18 03:26:37;;;;;;;37.03;26.87;;;;;;;;;;5013963;28;20254;-58
2024/02/18 03:29:05;;;;;;;38.13;26.60;;;;;;;;;;5014986;28;20259;-58
2024/02/18 03:31:33;;;;;;;35.00;24.50;;;;;;;;;;5014797;28;20247;-58
2024/02/18 03:34:00;;;;;;;41.77;28.07;;;8.50;99.90;;;;;;5014332;28;20209;-58
2024/02/18 03:36:27;;;;;;;38.67;27.03;;;;;;;;;;5007016;28;20203;-58
2024/02/18 03:38:55;;;;;;;39.70;27.67;;;;;;;;;;4995455;28;20210;-59
2024/02/18 03:41:23;;;;;;;41.83;28.73;;;;;;;;;;4995210;28;20295;-58
2024/02/18 03:43:50;;;;;;;42.37;26.77;;;;;;;;;;4994367;28;20277;-58
2024/02/18 03:46:17;;;;;;;40.57;26.67;;;;;;;;;;5000143;28;20243;-58
2024/02/18 03:48:44;;;;;;;35.63;26.50;;;;;;;;;;5014548;28;20673;-58
2024/02/18 03:51:11;;;;;;;39.07;27.53;;;;;;;;;;5014606;28;20273;-58
2024/02/18 03:53:39;;;;;;;37.87;26.00;;;;;;;;;;5012837;28;20211;-58
2024/02/18 03:56:08;;;;;;;39.97;26.27;;;;;;;;;;5013389;28;20740;-58
2024/02/18 03:58:35;;;;;;;33.37;24.67;;;;;;;;;;5014335;28;20212;-58
2024/02/18 04:01:02;;;;;;;43.33;30.27;;;;;;;;;;5014112;28;20289;-58
2024/02/18 04:03:29;;;;;;;39.00;27.40;;;;;;;;;;5013764;28;20281;-58
2024/02/18 04:05:56;;;;;;;44.13;29.43;;;;;;;;;;5013239;28;21163;-58
2024/02/18 04:08:23;;;;;;;46.50;30.60;;;8.60;99.90;;;;;;5014386;28;20213;-58
2024/02/18 04:10:51;;;;;;;42.70;29.37;;;8.50;99.90;;;;;;5014103;28;20218;-58
2024/02/18 04:13:19;;;;;;;38.23;26.63;;;;;;;;;;5013230;28;20756;-58
2024/02/18 04:15:46;;;;;;;42.47;28.90;;;;;;;;;;5013161;28;20213;-58
2024/02/18 04:18:14;;;;;;;44.70;30.53;;;;;;;;;;5014140;28;20263;-58
2024/02/18 04:20:41;;;;;;;44.73;30.53;;;;;;;;;;5013985;28;20215;-58
2024/02/18 04:23:08;;;;;;;44.20;30.20;;;;;;;;;;5011093;28;20212;-59
2024/02/18 04:25:36;;;;;;;40.37;28.10;;;;;;;;;;5014039;28;20632;-58
2024/02/18 04:28:03;;;;;;;41.40;29.53;;;;;;;;;;5010743;28;20201;-58
2024/02/18 04:30:32;;;;;;;41.43;28.40;;;;;;;;;;5014002;28;20644;-58
2024/02/18 04:32:59;;;;;;;39.60;27.53;;;;;;;;;;5013984;28;20229;-58
2024/02/18 04:35:26;;;;;;;47.23;30.97;;;;;;;;;;5014073;28;20260;-58
2024/02/18 04:37:54;;;;;;;42.63;29.23;;;;;;;;;;4995990;28;20207;-58
2024/02/18 04:40:21;;;;;;;45.37;30.63;;;;;;;;;;4994366;28;20201;-58
2024/02/18 04:42:48;;;;;;;44.43;30.20;;;;;;;;;;4994641;28;20226;-58
2024/02/18 04:45:15;;;;;;;48.03;31.53;;;;;;;;;;4993306;28;20207;-58
2024/02/18 04:47:44;;;;;;;46.10;30.57;;;;;;;;;;5009408;28;20259;-58
2024/02/18 04:50:12;;;;;;;43.53;28.93;;;;;;;;;;5013837;28;20418;-58
2024/02/18 04:52:39;;;;;;;45.43;30.17;;;;;;;;;;5013816;28;20299;-58
2024/02/18 04:55:07;;;;;;;43.10;29.80;;;;;;;;;;5014786;28;20269;-58
2024/02/18 04:57:34;;;;;;;49.03;30.97;;;;;;;;;;5012545;28;20610;-58
2024/02/18 05:00:02;;;;;;;48.87;33.87;;;;;;;;;;4992977;28;20272;-58
2024/02/18 05:02:32;;;;;;;52.07;34.80;;;;;;;;;;5008827;23;20346;-57
2024/02/18 05:05:02;;;;;;;54.57;33.20;;;;;;;;;;4991935;28;20207;-58
2024/02/18 05:07:49;;;;;;;50.27;31.73;;;;;;;;;;4992839;28;20342;-61
2024/02/18 05:10:16;;;;;;;50.70;31.67;;;;;;;;;;4973476;28;20288;-58
2024/02/18 05:12:43;;;;;;;47.53;31.60;;;;;;;;;;4973695;28;20672;-57
2024/02/18 05:15:11;;;;;;;54.00;32.90;;;;;;;;;;4972570;28;20214;-57
2024/02/18 05:17:39;;;;;;;47.50;32.47;;;;;;;;;;5001413;28;20582;-57
2024/02/18 05:20:09;;;;;;;52.40;32.47;;;;;;;;;;5012542;28;20595;-57
2024/02/18 05:22:39;;;;;;;46.93;31.17;;;;;;;;;;5012239;28;20741;-56
2024/02/18 05:25:07;;;;;;;48.23;31.90;;;;;;;;;;5011524;28;20205;-57
2024/02/18 05:27:34;;;;;;;55.40;31.30;;;;;;;;;;5011312;28;20235;-57
2024/02/18 05:30:01;;;;;;;50.60;33.20;;;;;;;;;;5012136;28;20320;-57
2024/02/18 05:32:29;;;;;;;51.20;32.50;;;;;;;;;;5012004;28;20231;-57
2024/02/18 05:34:56;;;;;;;53.67;31.57;;;;;;;;;;5011404;28;20209;-56
2024/02/18 05:37:25;;;;;;;56.50;33.10;;;;;;;;;;5011911;28;20202;-57
2024/02/18 05:39:52;;;;;;;51.80;32.40;;;;;;;;;;5012329;28;20199;-56
2024/02/18 05:42:19;;;;;;;59.07;34.07;;;;;;;;;;5012211;28;20271;-57
2024/02/18 05:44:46;;;;;;;60.23;34.40;;;;;;;;;;5011298;28;20216;-57
2024/02/18 05:47:14;;;;;;;60.33;33.87;;;;;;;;;;5011717;28;20201;-56
2024/02/18 05:49:41;;;;;;;58.80;33.57;;;;;;;;;;5012389;28;20207;-57
2024/02/18 05:52:10;;;;;;;61.90;35.27;;;;;;;;;;5012052;28;20251;-56
2024/02/18 05:54:38;;;;;;;60.40;35.53;;;;;;;;;;5011494;28;20665;-56
2024/02/18 05:57:06;;;;;;;57.43;32.67;;;;;;;;;;5012017;28;20752;-57
2024/02/18 05:59:33;;;;;;;61.57;35.00;;;;;;;;;;5011941;28;20215;-57
2024/02/18 06:02:01;;;;;;;56.53;33.93;;;;;;;;;;5011499;28;20225;-56
2024/02/18 06:04:28;;;;;;;56.70;33.80;;;;;;;;;;5010659;28;20250;-57
2024/02/18 06:06:55;;;;;;;55.33;32.67;;;;;;;;;;5011591;28;20261;-57
2024/02/18 06:09:23;;;;;;;56.53;33.90;;;;;;;;;;5011448;28;20213;-57
2024/02/18 06:11:52;;;;;;;60.83;31.37;;;8.10;99.90;;;;;;5011225;28;20236;-56
2024/02/18 06:14:19;;;;;;;54.40;32.63;;;8.10;99.90;;;;;;5010608;28;20205;-57
2024/02/18 06:16:46;;;;;;;52.73;32.70;;;8.10;99.90;;;;;;5010942;28;20213;-56
2024/02/18 06:19:13;;;;;;;52.83;32.97;;;8.20;99.90;;;;;;5011467;28;20201;-56
2024/02/18 06:21:40;;;;;;;54.70;33.63;;;8.20;99.90;;;;;;5011127;28;20749;-57
2024/02/18 06:24:07;;;;;;;47.40;29.90;;;8.10;99.90;;;;;;5010399;28;20616;-57
2024/02/18 06:26:35;;;;;;;52.37;32.50;;;;;;;;;;4999621;28;20216;-56
2024/02/18 06:29:03;;;;;;;55.63;32.07;;;8.10;99.90;;;;;;5008758;28;20205;-57
2024/02/18 06:31:30;;;;;;;49.13;29.83;;;8.20;99.90;;;;;;5010941;28;20240;-57
2024/02/18 06:33:57;;;;;;;45.60;30.20;;;;;;;;;;5008368;28;20212;-57
2024/02/18 06:36:25;;;;;;;47.17;31.57;;;;;;;;;;5010255;28;20245;-57
2024/02/18 06:38:52;;;;;;;50.47;32.10;;;;;;;;;;5011146;28;20236;-57
2024/02/18 06:41:19;;;;;;;54.17;33.10;;;;;;;;;;5011011;28;20744;-57
2024/02/18 06:43:47;;;;;;;49.93;31.37;;;;;;;;;;5010599;28;20330;-58
2024/02/18 06:46:16;;;;;;;53.37;34.53;;;;;;;;;;5010414;28;20214;-57
2024/02/18 06:48:43;;;;;;;55.00;33.63;;;;;;;;;;5011218;28;20213;-57
2024/02/18 06:51:10;;;;;;;57.90;35.73;;;;;;;;;;5010925;28;20267;-57
2024/02/18 06:53:38;;;;;;;57.83;34.37;;;;;;;;;;5010190;28;20296;-57
2024/02/18 06:56:05;;;;;;;55.00;32.40;;;;;;;;;;5010439;28;20244;-57
2024/02/18 06:58:32;;;;;;;57.17;33.10;;;;;;;;;;5011144;28;20206;-57
2024/02/18 07:00:59;;;;;;;54.10;32.53;;;;;;;;;;5010923;28;20739;-57
2024/02/18 07:03:28;;;;;;;52.37;31.90;;;;;;;;;;5010280;28;20209;-57
2024/02/18 07:05:55;;;;;;;55.97;32.17;;;8.40;99.90;;;;;;5010935;28;20261;-57
2024/02/18 07:08:22;;;;;;;52.37;31.80;;;;;;;;;;5009672;28;20205;-57
2024/02/18 07:10:50;;;;;;;48.83;31.70;;;;;;;;;;5011240;28;20233;-57
2024/02/18 07:13:17;;;;;;;62.63;33.67;;;;;;;;;;5010479;28;20286;-57
2024/02/18 07:15:45;;;;;;;57.60;33.70;;;;;;;;;;5011076;28;20678;-57
2024/02/18 07:18:12;;;;;;;53.67;31.23;;;;;;;;;;5010174;28;20233;-57
2024/02/18 07:20:41;;;;;;;58.70;35.97;;;;;;;;;;5008905;28;20489;-57
2024/02/18 07:23:08;;;;;;;64.70;32.93;;;;;;;;;;5009995;28;20806;-57
2024/02/18 07:25:35;;;;;;;60.40;32.13;;;;;;;;;;5010244;28;20703;-57
2024/02/18 07:28:03;;;;;;;57.20;31.57;;;;;;;;;;5011141;28;20195;-57
2024/02/18 07:30:30;;;;;;;56.57;33.63;;;;;;;;;;4993179;28;20285;-57
2024/02/18 07:32:57;;;;;;;57.33;33.10;;;;;;;;;;4992618;28;20229;-57
2024/02/18 07:35:24;;;;;;;58.33;32.07;;;;;;;;;;4992101;28;20206;-57
2024/02/18 07:37:53;;;;;;;61.20;30.87;;;;;;;;;;4987509;28;20205;-57
2024/02/18 07:40:20;;;;;;;66.90;34.57;;;;;;;;;;4994391;28;20202;-57
2024/02/18 07:42:47;;;;;;;69.27;32.67;;;;;;;;;;4993284;28;20779;-58
2024/02/18 07:45:14;;;;;;;58.97;34.43;;;;;;;;;;5001490;28;20207;-59
2024/02/18 07:47:42;;;;;;;62.43;33.97;;;;;;;;;;4994155;28;20264;-58
2024/02/18 07:50:10;;;;;;;60.90;33.87;;;;;;;;;;4994818;28;20205;-58
2024/02/18 07:52:37;;;;;;;60.67;31.83;;;;;;;;;;4992880;28;20230;-59
2024/02/18 07:55:06;;;;;;;61.90;32.67;;;;;;;;;;4974156;28;20210;-59
2024/02/18 07:57:33;;;;;;;56.53;31.37;;;;;;;;;;4974860;28;20206;-59
2024/02/18 08:00:00;;;;;;;58.73;33.17;;;;;;;;;;4978481;28;20261;-60
2024/02/18 08:02:30;;;;;;;50.77;31.83;;;;;;;;;;5013055;28;20224;-62
2024/02/18 08:04:58;;;;;;;60.00;32.87;;;;;;;;;;5013477;28;20272;-62
2024/02/18 08:07:32;;;;;;;52.90;30.60;;;;;;;;;;5013870;28;20201;-62
2024/02/18 08:09:59;;;;;;;51.97;30.07;;;;;;;;;;5012945;28;20215;-62
2024/02/18 08:12:32;;;;;;;49.80;30.20;;;;;;;;;;5013193;28;20708;-62
2024/02/18 08:14:59;;;;;;;50.43;28.37;;;;;;;;;;5012878;28;20659;-62
2024/02/18 08:17:26;;;;;;;55.30;31.23;;;;;;;;;;5013661;28;20271;-62
2024/02/18 08:19:53;;;;;;;54.67;31.63;;;;;;;;;;5012696;28;20262;-62
2024/02/18 08:22:21;;;;;;;51.20;30.77;;;;;;;;;;5013441;28;20219;-63
2024/02/18 08:24:48;;;;;;;57.03;32.17;;;;;;;;;;5014812;28;20676;-61
2024/02/18 08:27:16;;;;;;;62.83;33.57;;;;;;;;;;5020711;28;20673;-61
2024/02/18 08:29:44;;;;;;;62.77;30.63;;;;;;;;;;5019219;28;20210;-61
2024/02/18 08:32:12;;;;;;;58.27;31.50;;;;;;;;;;5020059;28;20229;-62
2024/02/18 08:34:40;;;;;;;68.33;34.87;;;;;;;;;;5010875;28;20711;-61
2024/02/18 08:37:08;;;;;;;66.13;34.20;;;;;;;;;;5013611;28;20234;-60
2024/02/18 08:39:36;;;;;;;69.00;32.50;;;;;;;;;;5010671;28;20296;-60
2024/02/18 08:42:03;;;;;;;57.93;32.87;;;;;;;;;;4995771;28;20851;-60
2024/02/18 08:44:30;;;;;;;55.67;32.90;;;;;;;;;;4992708;28;20209;-60
2024/02/18 08:46:59;;;;;;;56.67;33.43;;;;;;;;;;4993894;28;20205;-61
2024/02/18 08:49:26;;;;;;;54.13;31.37;;;;;;;;;;4993942;28;20247;-63
2024/02/18 08:51:54;;;;;;;64.93;34.70;;;;;;;;;;5008946;28;20244;-60
2024/02/18 08:54:21;;;;;;;57.23;33.90;;;;;;;;;;5011832;28;20259;-62
2024/02/18 08:56:48;;;;;;;63.83;32.83;;;;;;;;;;5012982;28;20205;-61
2024/02/18 08:59:16;;;;;;;59.77;33.23;;;;;;;;;;5012485;28;20203;-61
2024/02/18 09:01:43;;;;;;;66.13;33.57;;;;;;;;;;5012072;28;20752;-61
2024/02/18 09:04:11;;;;;;;52.40;32.80;;;;;;;;;;5012745;28;20262;-61
2024/02/18 09:06:39;;;;;;;61.90;34.67;;;;;;;;;;5013153;28;20240;-62
2024/02/18 09:09:06;;;;;;;56.10;33.27;;;;;;;;;;5013263;28;20250;-59
2024/02/18 09:11:33;;;;;;;63.17;32.70;;;;;;;;;;4999346;28;20229;-61
2024/02/18 09:14:00;;;;;;;73.33;37.73;;;;;;;;;;4992331;28;20237;-59
2024/02/18 09:16:28;;;;;;;54.63;32.47;;;;;;;;;;4992865;28;20206;-58
2024/02/18 09:18:55;;;;;;;57.77;33.73;;;;;;;;;;4992734;28;20590;-59
2024/02/18 09:21:41;;;;;;;56.27;32.43;;;;;;;;;;5003076;28;20288;-63
2024/02/18 09:24:10;;;;;;;64.50;36.90;;;;;;;;;;5011805;28;20682;-62
2024/02/18 09:26:37;;;;;;;52.73;31.00;;;;;;;;;;5012442;28;20202;-61
2024/02/18 09:29:05;;;;;;;58.43;32.50;;;;;;;;;;5012100;28;20577;-62
2024/02/18 09:31:36;;;;;;;61.30;33.23;;;;;;;;;;5011129;28;20228;-64
2024/02/18 09:34:03;;;;;;;54.00;32.50;;;;;;;;;;5010344;28;20201;-60
2024/02/18 09:36:30;;;;;;;55.07;31.97;;;;;;;;;;5012228;28;20207;-61
2024/02/18 09:38:58;;;;;;;51.97;30.33;;;;;;;;;;5012338;28;20271;-63
2024/02/18 09:41:28;;;;;;;51.20;30.80;;;;;;;;;;5012020;28;20221;-63
2024/02/18 09:43:57;;;;;;;49.03;28.60;;;;;;;;;;5011537;28;20747;-63
2024/02/18 09:46:25;;;;;;;53.60;31.63;;;;;;;;;;5011799;28;20214;-62
2024/02/18 09:48:53;;;;;;;53.60;30.67;;;;;;;;;;5011718;28;20673;-62
2024/02/18 09:51:20;;;;;;;50.93;29.87;;;;;;;;;;5009850;28;20260;-61
2024/02/18 09:53:47;;;;;;;52.77;29.73;;;;;;;;;;5010965;28;20216;-63
2024/02/18 09:56:15;;;;;;;51.90;28.63;;;;;;;;;;5011573;28;20283;-63
2024/02/18 09:58:43;;;;;;;52.13;30.67;;;;;;;;;;5011467;28;20275;-65
2024/02/18 10:01:11;;;;;;;51.33;28.20;;;;;;;;;;5010443;28;20732;-62
2024/02/18 10:03:38;;;;;;;46.80;28.93;;;;;;;;;;5010942;28;20213;-61
2024/02/18 10:06:06;;;;;;;51.23;31.87;;;;;;;;;;5011422;28;20221;-60
2024/02/18 10:08:42;;;;;;;54.27;32.27;;;;;;;;;;5011261;28;20206;-62
2024/02/18 10:11:09;;;;;;;53.20;29.73;;;;;;;;;;5010407;28;20229;-64
2024/02/18 10:13:37;;;;;;;46.33;31.10;;;;;;;;;;5010520;28;20263;-65
2024/02/18 10:16:06;;;;;;;59.27;31.50;;;;;;;;;;5011454;28;20748;-60
2024/02/18 10:18:33;;;;;;;52.47;31.30;;;;;;;;;;5011240;28;20213;-59
2024/02/18 10:21:01;;;;;;;45.23;29.33;;;;;;;;;;5010630;28;20220;-64
2024/02/18 10:23:28;;;;;;;47.77;29.03;;;;;;;;;;5010262;28;20245;-69
2024/02/18 10:25:55;;;;;;;52.13;31.10;;;;;;;;;;5011194;28;20202;-64
2024/02/18 10:28:23;;;;;;;43.97;28.13;;;;;;;;;;5011255;28;20579;-64
2024/02/18 10:30:50;;;;;;;43.33;29.47;;;;;;;;;;5011358;28;20207;-63
2024/02/18 10:33:19;;;;;;;53.33;30.60;;;;;;;;;;5009351;28;20302;-65
2024/02/18 10:35:49;;;;;;;48.07;29.00;;;;;;;;;;5010840;28;20626;-61
2024/02/18 10:38:20;;;;;;;44.97;27.47;;;;;;;;;;5009183;28;20209;-60
2024/02/18 10:40:49;;;;;;;41.00;26.97;;;;;;;;;;5012457;28;20229;-61
2024/02/18 10:43:20;;;;;;;45.10;27.50;;;;;;;;;;5007688;28;20272;-61
2024/02/18 10:45:48;;;;;;;47.00;28.57;;;;;;;;;;5011083;28;20625;-66
2024/02/18 10:48:16;;;;;;;40.47;27.47;;;;;;;;;;5011056;28;20209;-66
2024/02/18 10:50:46;;;;;;;39.53;26.57;;;;;;;;;;5011051;28;20263;-67
2024/02/18 10:53:20;;;;;;;39.67;26.63;;;;;;;;;;5008048;28;20226;-61
2024/02/18 10:55:56;;;;;;;41.57;25.60;;;;;;;;;;5009295;28;20212;-60
2024/02/18 10:58:24;;;;;;;38.37;26.37;;;;;;;;;;5009980;28;20209;-61
2024/02/18 11:00:54;;;;;;;38.60;24.77;;;;;;;;;;5009985;28;20268;-60
2024/02/18 11:03:25;;;;;;;37.13;23.90;;;;;;;;;;5043295;23;20323;-61
2024/02/18 11:05:58;;;;;;;35.70;23.63;;;;;;;;;;5034596;28;20213;-61
2024/02/18 11:08:28;;;;;;;32.60;23.37;;;;;;;;;;5035000;28;20206;-61
2024/02/18 11:10:55;;;;;;;40.00;24.00;;;;;;;;;;5035288;28;20202;-60
2024/02/18 11:13:25;;;;;;;34.30;23.40;;;;;;;;;;5033494;28;20230;-61
2024/02/18 11:15:52;;;;;;;33.27;23.10;;;;;;;;;;5035101;28;20210;-61
2024/02/18 11:18:20;;;;;;;34.97;24.07;;;;;;;;;;5038224;28;20263;-60
2024/02/18 11:20:47;;;;;;;32.40;22.63;;;;;;;;;;5035399;28;20259;-61
2024/02/18 11:23:16;;;;;;;54.33;33.77;;;;;;;;;;5033387;28;20278;-60
2024/02/18 11:25:45;;;;;;;55.60;32.93;;;;;;;;;;5035062;28;20203;-60
2024/02/18 11:28:12;;;;;;;59.37;35.23;;;;;;;;;;5034937;28;20249;-60
2024/02/18 11:30:39;;;;;;;61.30;35.30;;;;;;;;;;5035077;28;20208;-60
2024/02/18 11:33:07;;;;;;;55.67;34.67;;;;;;;;;;5029425;28;20267;-61
2024/02/18 11:35:34;;;;;;;65.43;37.60;;;;;;;;;;5035439;28;20225;-61
2024/02/18 11:38:02;;;;;;;60.77;36.17;;;;;;;;;;5043739;28;20200;-61
2024/02/18 11:40:33;;;;;;;68.63;40.27;;;;;;;;;;5043098;28;20232;-61
2024/02/18 11:43:00;;;;;;;62.70;36.30;;;;;;;;;;5035793;28;20218;-60
2024/02/18 11:45:28;;;;;;;65.33;36.87;;;;;;;;;;5034324;28;20204;-60
2024/02/18 11:47:57;;;;;;;61.30;36.47;;;;;;;;;;5034981;28;20256;-61
2024/02/18 11:50:24;;;;;;;60.73;35.07;;;;;;;;;;5034888;28;20201;-60
2024/02/18 11:52:53;;;;;;;55.80;36.17;;;;;;;;;;5034258;28;20237;-60
2024/02/18 11:55:21;;;;;;;71.30;38.90;;;;;;;;;;5034243;28;20314;-60
2024/02/18 11:57:50;;;;;;;66.97;38.20;;;;;;;;;;5034309;28;20206;-61
2024/02/18 12:00:18;;;;;;;71.53;40.90;;;;;;;;;;5034526;28;20255;-60
2024/02/18 12:02:50;;;;;;;79.13;40.90;;;;;;;;;;5034296;28;20233;-60
2024/02/18 12:05:18;;;;;;;65.87;36.93;;;;;;;;;;5033635;28;20324;-60
2024/02/18 12:07:46;;;;;;;73.30;37.53;;;;;;;;;;5034306;28;20210;-60
2024/02/18 12:10:14;;;;;;;73.27;37.47;;;;;;;;;;5034014;28;20289;-60
2024/02/18 12:12:41;;;;;;;64.73;36.00;;;;;;;;;;5032944;28;20228;-60
2024/02/18 12:15:10;;;;;;;65.47;36.53;;;;;;;;;;5013021;28;20198;-60
2024/02/18 12:17:37;;;;;;;60.67;35.37;;;;;;;;;;5014280;28;20248;-60
2024/02/18 12:20:06;;;;;;;68.40;36.17;;;;;;;;;;5014169;28;20674;-60
2024/02/18 12:22:34;;;;;;;64.33;37.23;;;;;;;;;;5013889;28;20248;-61
2024/02/18 12:25:01;;;;;;;58.17;34.10;;;;;;;;;;5013338;28;20209;-60
2024/02/18 12:27:32;;;;;;;55.77;32.80;;;;;;;;;;5014349;28;20210;-60
2024/02/18 12:29:59;;;;;;;61.77;33.00;;;;;;;;;;5013985;28;20739;-60
2024/02/18 12:32:31;;;;;;;59.50;33.40;;;;;;;;;;5025822;28;20220;-60
2024/02/18 12:34:58;;;;;;;55.47;33.57;;;;;;;;;;5033125;28;20250;-60
2024/02/18 12:37:25;;;;;;;52.53;32.60;;;;;;;;;;5034026;28;20270;-60
2024/02/18 12:39:54;;;;;;;56.50;34.73;;;;;;;;;;5033648;28;20260;-60
2024/02/18 12:42:22;;;;;;;61.30;35.17;;;;;;;;;;5033414;28;20224;-60
2024/02/18 12:44:49;;;;;;;54.47;33.67;;;;;;;;;;5030613;28;20200;-60
2024/02/18 12:47:17;;;;;;;54.53;30.17;;;10.80;99.90;;;;;;5035826;28;20633;-61
2024/02/18 12:49:46;;;;;;;61.97;34.13;;;;;;;;;;5032987;28;20200;-60
2024/02/18 12:52:14;;;;;;;49.37;30.47;;;;;;;;;;5032802;28;20229;-60
2024/02/18 12:54:42;;;;;;;46.17;29.87;;;;;;;;;;5030394;28;20234;-60
2024/02/18 12:57:09;;;;;;;44.47;28.10;;;;;;;;;;5014215;28;20305;-61
2024/02/18 12:59:37;;;;;;;45.97;27.57;;;11.00;99.90;;;;;;5013881;28;20264;-61
2024/02/18 13:02:06;;;;;;;42.23;27.57;;;11.00;99.90;;;;;;5013506;28;20292;-60
2024/02/18 13:04:33;;;;;;;43.70;27.10;;;11.00;99.90;;;;;;5013370;28;20205;-60
2024/02/18 13:07:07;;;;;;;37.33;23.63;;;10.80;99.90;;;;;;5014800;28;20202;-61
2024/02/18 13:09:35;;;;;;;38.00;24.20;;;10.70;99.90;;;;;;5016866;28;20221;-60
2024/02/18 13:12:03;;;;;;;38.27;24.67;;;10.70;99.90;;;;;;5020226;28;20215;-60
2024/02/18 13:14:30;;;;;;;34.17;23.47;;;10.70;99.90;;;;;;5032096;28;20254;-60
2024/02/18 13:16:57;;;;;;;37.20;22.47;;;10.80;99.90;;;;;;5032838;28;20206;-61
2024/02/18 13:19:24;;;;;;;37.43;24.27;;;10.60;99.90;;;;;;5033028;28;20263;-60
2024/02/18 13:21:51;;;;;;;29.53;22.33;;;10.60;99.90;;;;;;5032483;28;20220;-60
2024/02/18 13:24:19;;;;;;;34.73;22.10;;;10.60;99.90;;;;;;5021926;28;20268;-60
2024/02/18 13:26:46;;;;;;;35.43;24.67;;;10.60;99.90;;;;;;5013119;28;20209;-60
2024/02/18 13:29:13;;;;;;;27.50;20.43;;;10.80;99.90;;;;;;5012893;28;20271;-60
2024/02/18 13:31:41;;;;;;;33.60;22.27;;;10.60;99.90;;;;;;5016440;28;20248;-60
2024/02/18 13:34:08;;;;;;;30.10;21.43;;;10.80;99.90;;;;;;5031920;28;20229;-60
2024/02/18 13:36:39;;;;;;;33.43;24.17;;;10.90;99.90;;;;;;5032602;28;20233;-60
2024/02/18 13:39:14;;;;;;;32.90;22.57;;;11.00;99.90;;;;;;5032551;28;20296;-60
2024/02/18 13:41:42;;;;;;;30.57;23.50;;;11.00;99.90;;;;;;5028115;28;20228;-60
2024/02/18 13:44:10;;;;;;;38.70;24.77;;;;;;;;;;5012265;28;20198;-60
2024/02/18 13:46:37;;;;;;;31.43;23.67;;;11.00;99.90;;;;;;5012829;28;20260;-60
2024/02/18 13:49:04;;;;;;;30.57;22.43;;;11.00;99.90;;;;;;5012839;28;20238;-60